Serrai, Greece
Current Conditions -  °F | °C
As of 9:20 AM on Wednesday 22 Oct 2014 (Local Time) from LGTS Reporting Station
Moderate Fog Moderate Fog  
Wind Chill: 57°   Ceiling: 300
Heat Index: 57°   Visibility: 0.31mi
Dew Point: 54°   Wind: 3mph
Humidity: 88%   Direction: 100°E
Pressure: 29.77"   Gusts: NA
Location:  41.09°N, 23.55°E
Report Text: LGTS 220620Z 10003KT 0500 R16/1900 R34/1800 FG BKN003 14/12 Q1008 NOSIG
Loading
Personal Weather Stations






























Interactive Weather Map
Tropical Storm Tracking
New forecast layout! Learn more

10-Day Weather Forecast

Advertisements
Track Severe Weather on mobile